createdAt,value
2023-02-13T00:01:15.895Z,23.95
2023-02-13T00:03:43.853Z,22.58
2023-02-13T00:06:12.224Z,21.63
2023-02-13T00:08:40.120Z,22.15
2023-02-13T00:11:08.308Z,20.63
2023-02-13T00:13:36.481Z,21.02
2023-02-13T00:16:07.122Z,21.80
2023-02-13T00:18:36.562Z,20.13
2023-02-13T00:21:07.543Z,21.83
2023-02-13T00:23:36.710Z,22.33
2023-02-13T00:26:08.102Z,19.30
2023-02-13T00:28:36.217Z,19.65
2023-02-13T00:31:07.420Z,19.77
2023-02-13T00:33:35.695Z,20.70
2023-02-13T00:36:05.923Z,21.20
2023-02-13T00:38:33.894Z,22.05
2023-02-13T00:41:02.031Z,22.23
2023-02-13T00:43:30.035Z,19.95
2023-02-13T00:45:58.826Z,20.83
2023-02-13T00:48:30.159Z,21.55
2023-02-13T00:50:58.946Z,20.45
2023-02-13T00:53:28.250Z,19.52
2023-02-13T00:55:56.445Z,18.40
2023-02-13T00:58:25.224Z,18.77
2023-02-13T01:00:54.480Z,19.02
2023-02-13T01:03:23.329Z,18.63
2023-02-13T01:05:53.338Z,20.20
2023-02-13T01:08:22.077Z,21.08
2023-02-13T01:10:50.571Z,20.85
2023-02-13T01:13:19.518Z,18.45
2023-02-13T01:15:48.465Z,21.52
2023-02-13T01:18:17.670Z,21.75
2023-02-13T01:20:46.178Z,25.75
2023-02-13T01:23:15.432Z,31.42
2023-02-13T01:25:43.701Z,33.05
2023-02-13T01:28:11.673Z,34.40
2023-02-13T01:30:39.919Z,29.13
2023-02-13T01:33:07.910Z,23.08
2023-02-13T01:35:36.129Z,20.27
2023-02-13T01:38:04.023Z,19.98
2023-02-13T01:40:33.697Z,19.83
2023-02-13T01:43:01.675Z,21.10
2023-02-13T01:45:31.088Z,19.55
2023-02-13T01:48:01.371Z,19.88
2023-02-13T01:50:33.646Z,17.02
2023-02-13T01:53:05.316Z,18.02
2023-02-13T01:55:36.243Z,17.63
2023-02-13T01:58:08.137Z,17.38
2023-02-13T02:00:37.077Z,17.67
2023-02-13T02:03:07.930Z,17.73
2023-02-13T02:05:37.663Z,18.13
2023-02-13T02:08:08.891Z,17.40
2023-02-13T02:10:39.400Z,16.40
2023-02-13T02:13:11.582Z,17.75
2023-02-13T02:15:40.391Z,18.60
2023-02-13T02:18:14.180Z,18.13
2023-02-13T02:21:16.999Z,19.30
2023-02-13T02:24:02.817Z,17.40
2023-02-13T02:27:03.276Z,39.05
2023-02-13T02:29:56.983Z,26.27
2023-02-13T02:32:50.619Z,33.47
2023-02-13T02:35:27.110Z,43.67
2023-02-13T02:38:07.335Z,25.13
2023-02-13T02:40:42.592Z,19.15
2023-02-13T02:43:20.619Z,73.68
2023-02-13T02:45:54.265Z,76.10
2023-02-13T02:48:46.905Z,81.78
2023-02-13T02:51:21.915Z,79.53
2023-02-13T02:53:58.402Z,78.82
2023-02-13T02:56:29.408Z,72.28
2023-02-13T02:59:20.926Z,79.72
2023-02-13T03:02:07.836Z,76.30
2023-02-13T03:04:57.476Z,83.45
2023-02-13T03:07:25.643Z,87.22
2023-02-13T03:10:14.433Z,85.25
2023-02-13T03:13:04.929Z,92.57
2023-02-13T03:15:33.963Z,92.30
2023-02-13T03:18:19.466Z,101.50
2023-02-13T03:21:11.130Z,91.38
2023-02-13T03:23:47.227Z,89.00
2023-02-13T03:26:46.161Z,90.82
2023-02-13T03:29:39.554Z,92.32
2023-02-13T03:32:13.166Z,93.95
2023-02-13T03:35:04.500Z,95.07
2023-02-13T03:37:55.529Z,99.80
2023-02-13T03:40:27.945Z,106.72
2023-02-13T03:43:00.549Z,114.95
2023-02-13T03:48:31.718Z,117.15
2023-02-13T03:51:00.602Z,118.15
2023-02-13T03:53:31.231Z,119.60
2023-02-13T03:56:17.858Z,97.38
2023-02-13T03:59:06.324Z,93.03
2023-02-13T04:01:35.924Z,87.28
2023-02-13T04:04:09.123Z,87.20
2023-02-13T04:06:41.467Z,80.60
2023-02-13T04:09:11.012Z,64.10
2023-02-13T04:11:42.571Z,69.53
2023-02-13T04:14:16.780Z,60.35
2023-02-13T04:16:47.771Z,64.43
2023-02-13T04:19:16.858Z,61.50
2023-02-13T04:21:44.815Z,61.45
2023-02-13T04:24:14.355Z,61.85
2023-02-13T04:26:44.240Z,57.90
2023-02-13T04:29:12.411Z,70.03
2023-02-13T04:31:40.709Z,64.85
2023-02-13T04:34:08.931Z,65.38
2023-02-13T04:36:37.149Z,68.53
2023-02-13T04:39:05.378Z,62.38
2023-02-13T04:41:34.621Z,68.15
2023-02-13T04:44:03.226Z,68.85
2023-02-13T04:46:31.177Z,68.43
2023-02-13T04:48:59.371Z,65.35
2023-02-13T04:51:28.098Z,60.30
2023-02-13T04:53:56.310Z,60.50
2023-02-13T04:56:24.194Z,50.35
2023-02-13T04:58:53.806Z,58.20
2023-02-13T05:01:21.961Z,57.80
2023-02-13T05:03:50.494Z,54.10
2023-02-13T05:06:18.446Z,52.17
2023-02-13T05:08:46.628Z,49.42
2023-02-13T05:11:14.585Z,47.15
2023-02-13T05:13:42.760Z,40.72
2023-02-13T05:16:12.079Z,38.05
2023-02-13T05:18:40.291Z,39.90
2023-02-13T05:21:25.675Z,38.35
2023-02-13T05:23:53.962Z,39.58
2023-02-13T05:26:21.891Z,35.45
2023-02-13T05:29:07.633Z,35.25
2023-02-13T05:31:36.961Z,33.70
2023-02-13T05:34:05.309Z,33.70
2023-02-13T05:36:33.222Z,33.08
2023-02-13T05:39:01.622Z,34.70
2023-02-13T05:41:29.528Z,34.33
2023-02-13T05:43:57.708Z,33.75
2023-02-13T05:46:25.814Z,34.58
2023-02-13T05:48:55.339Z,34.00
2023-02-13T05:51:23.255Z,32.35
2023-02-13T05:53:51.552Z,33.97
2023-02-13T05:56:19.588Z,35.45
2023-02-13T05:58:47.758Z,35.20
2023-02-13T06:01:15.662Z,36.03
2023-02-13T06:03:43.866Z,33.95
2023-02-13T06:06:13.194Z,36.22
2023-02-13T06:08:41.402Z,38.00
2023-02-13T06:11:10.068Z,37.25
2023-02-13T06:13:40.603Z,39.58
2023-02-13T06:16:09.153Z,35.70
2023-02-13T06:18:37.788Z,36.97
2023-02-13T06:21:06.330Z,37.65
2023-02-13T06:23:36.407Z,36.22
2023-02-13T06:26:05.630Z,33.63
2023-02-13T06:28:33.894Z,34.53
2023-02-13T06:31:02.751Z,31.75
2023-02-13T06:33:31.109Z,31.55
2023-02-13T06:35:59.206Z,29.75
2023-02-13T06:38:27.496Z,28.30
2023-02-13T06:41:00.557Z,25.35
2023-02-13T06:43:28.927Z,23.77
2023-02-13T06:45:56.921Z,24.17
2023-02-13T06:48:25.487Z,21.98
2023-02-13T06:50:53.534Z,22.13
2023-02-13T06:53:24.641Z,23.15
2023-02-13T06:55:53.906Z,24.55
2023-02-13T06:58:24.697Z,26.77
2023-02-13T07:00:53.520Z,26.23
2023-02-13T07:03:21.985Z,22.75
2023-02-13T07:05:51.968Z,25.20
2023-02-13T07:08:20.301Z,23.63
2023-02-13T07:10:48.231Z,26.35
2023-02-13T07:13:16.440Z,25.92
2023-02-13T07:15:45.948Z,26.58
2023-02-13T07:18:14.223Z,28.95
2023-02-13T07:20:42.136Z,27.92
2023-02-13T07:23:11.649Z,27.85
2023-02-13T07:25:39.553Z,29.75
2023-02-13T07:28:08.332Z,28.67
2023-02-13T07:30:36.463Z,28.83
2023-02-13T07:33:06.314Z,31.92
2023-02-13T07:35:35.893Z,30.80
2023-02-13T07:38:04.281Z,28.70
2023-02-13T07:40:32.171Z,29.40
2023-02-13T07:43:02.188Z,26.45
2023-02-13T07:45:30.147Z,25.02
2023-02-13T07:47:58.502Z,26.65
2023-02-13T07:50:28.312Z,28.38
2023-02-13T07:52:56.866Z,27.92
2023-02-13T07:55:24.802Z,29.70
2023-02-13T07:57:53.176Z,26.33
2023-02-13T08:00:22.512Z,29.98
2023-02-13T08:02:50.715Z,31.00
2023-02-13T08:05:18.819Z,30.60
2023-02-13T08:07:48.362Z,31.38
2023-02-13T08:10:34.242Z,28.10
2023-02-13T08:13:02.434Z,30.60
2023-02-13T08:15:30.366Z,30.00
2023-02-13T08:17:58.537Z,30.30
2023-02-13T08:20:26.509Z,25.60
2023-02-13T08:22:56.115Z,22.85
2023-02-13T08:25:24.027Z,20.48
2023-02-13T08:27:52.229Z,20.23
2023-02-13T08:30:20.199Z,17.33
2023-02-13T08:32:54.341Z,17.67
2023-02-13T08:35:22.703Z,17.20
2023-02-13T08:37:50.925Z,19.65
2023-02-13T08:40:20.588Z,18.67
2023-02-13T08:42:48.910Z,18.52
2023-02-13T08:45:16.854Z,19.40
2023-02-13T08:47:45.018Z,20.42
2023-02-13T08:50:12.968Z,21.33
2023-02-13T08:52:41.246Z,20.58
2023-02-13T08:55:09.359Z,20.10
2023-02-13T08:57:38.843Z,19.60
2023-02-13T09:00:08.036Z,17.20
2023-02-13T09:02:36.298Z,18.38
2023-02-13T09:05:04.491Z,17.55
2023-02-13T09:07:32.709Z,13.45
2023-02-13T09:10:00.633Z,18.65
2023-02-13T09:12:28.806Z,16.55
2023-02-13T09:14:58.075Z,18.23
2023-02-13T09:17:26.357Z,17.67
2023-02-13T09:19:54.297Z,18.20
2023-02-13T09:22:22.630Z,14.45
2023-02-13T09:24:50.553Z,16.38
2023-02-13T09:27:18.842Z,17.90
2023-02-13T09:29:47.076Z,18.05
2023-02-13T09:32:17.184Z,17.10
2023-02-13T09:34:45.190Z,15.27
2023-02-13T09:37:13.382Z,16.13
2023-02-13T09:39:41.481Z,16.50
2023-02-13T09:42:18.740Z,12.20
2023-02-13T09:44:47.650Z,14.75
2023-02-13T09:47:18.897Z,15.30
2023-02-13T09:49:49.558Z,15.40
2023-02-13T09:52:17.954Z,14.35
2023-02-13T09:54:46.188Z,15.63
2023-02-13T09:57:21.139Z,13.65
2023-02-13T09:59:58.044Z,14.32
2023-02-13T10:02:50.995Z,16.42
2023-02-13T10:07:57.963Z,15.27
2023-02-13T10:10:31.289Z,14.35
2023-02-13T10:13:09.962Z,13.35
2023-02-13T10:15:44.254Z,14.57
2023-02-13T10:18:16.521Z,14.30
2023-02-13T10:20:47.570Z,13.45
2023-02-13T10:23:22.608Z,13.77
2023-02-13T10:25:53.539Z,12.45
2023-02-13T10:28:30.363Z,10.50
2023-02-13T10:31:00.978Z,11.85
2023-02-13T10:33:33.319Z,8.90
2023-02-13T10:36:03.881Z,8.60
2023-02-13T10:38:33.597Z,9.45
2023-02-13T10:41:07.826Z,10.73
2023-02-13T10:43:41.594Z,9.52
2023-02-13T10:46:18.758Z,9.55
2023-02-13T10:49:10.012Z,11.00
2023-02-13T10:51:43.425Z,12.15
2023-02-13T10:54:24.403Z,15.57
2023-02-13T10:56:57.998Z,14.88
2023-02-13T10:59:41.439Z,11.68
2023-02-13T11:02:22.615Z,13.32
2023-02-13T11:04:54.158Z,13.03
2023-02-13T11:07:25.399Z,10.20
2023-02-13T11:09:56.050Z,9.77
2023-02-13T11:12:28.939Z,8.90
2023-02-13T11:14:58.829Z,11.70
2023-02-13T11:17:30.231Z,10.63
2023-02-13T11:20:01.510Z,12.35
2023-02-13T11:22:33.236Z,11.98
2023-02-13T11:25:04.063Z,8.73
2023-02-13T11:27:35.338Z,10.23
2023-02-13T11:30:06.224Z,8.85
2023-02-13T11:32:35.427Z,12.93
2023-02-13T11:35:28.318Z,11.63
2023-02-13T11:40:41.697Z,12.80
2023-02-13T11:43:15.621Z,11.43
2023-02-13T11:45:44.790Z,10.70
2023-02-13T11:48:22.061Z,11.50
2023-02-13T11:50:56.137Z,12.02
2023-02-13T11:53:26.643Z,7.88
2023-02-13T11:56:11.896Z,7.32
2023-02-13T11:58:40.752Z,8.80
2023-02-13T12:01:28.365Z,8.77
2023-02-13T12:04:05.476Z,10.70
2023-02-13T12:06:39.809Z,9.88
2023-02-13T12:09:15.298Z,10.52
2023-02-13T12:11:46.569Z,9.95
2023-02-13T12:14:17.920Z,9.73
2023-02-13T12:16:50.544Z,11.45
2023-02-13T12:19:21.083Z,13.48
2023-02-13T12:22:06.322Z,15.18
2023-02-13T12:24:49.233Z,12.77
2023-02-13T12:27:21.327Z,12.48
2023-02-13T12:30:19.052Z,13.93
2023-02-13T12:32:55.605Z,16.90
2023-02-13T12:35:42.795Z,10.50
2023-02-13T12:38:21.371Z,10.80
2023-02-13T12:41:08.494Z,20.08
2023-02-13T12:43:55.217Z,19.25
2023-02-13T12:46:29.785Z,13.48
2023-02-13T12:49:04.667Z,16.45
2023-02-13T12:51:40.773Z,12.50
2023-02-13T12:54:27.466Z,14.27
2023-02-13T12:57:04.044Z,12.02
2023-02-13T12:59:46.543Z,10.63
2023-02-13T13:02:36.384Z,10.93
2023-02-13T13:05:13.980Z,15.63
2023-02-13T13:07:51.610Z,10.82
2023-02-13T13:10:30.798Z,9.70
2023-02-13T13:13:05.332Z,10.73
2023-02-13T13:15:37.050Z,10.05
2023-02-13T13:18:23.486Z,12.67
2023-02-13T13:21:05.079Z,10.70
2023-02-13T13:23:37.250Z,11.38
2023-02-13T13:26:15.746Z,11.73
2023-02-13T13:28:45.653Z,12.70
2023-02-13T13:31:14.582Z,11.93
2023-02-13T13:33:45.217Z,12.32
2023-02-13T13:36:17.510Z,12.90
2023-02-13T13:38:53.351Z,13.00
2023-02-13T13:41:29.669Z,15.10
2023-02-13T13:44:08.094Z,14.75
2023-02-13T13:46:45.512Z,15.80
2023-02-13T13:49:28.717Z,17.27
2023-02-13T13:52:11.492Z,16.33
2023-02-13T13:54:39.560Z,18.10
2023-02-13T13:57:13.583Z,18.35
2023-02-13T14:00:00.130Z,22.42
2023-02-13T14:02:39.702Z,18.20
2023-02-13T14:05:23.586Z,19.75
2023-02-13T14:07:53.656Z,19.15
2023-02-13T14:11:00.335Z,18.10
2023-02-13T14:13:35.386Z,17.65
2023-02-13T14:16:03.843Z,63.53
2023-02-13T14:18:32.670Z,21.60
2023-02-13T14:21:02.329Z,16.15
2023-02-13T14:23:49.632Z,14.10
2023-02-13T14:26:45.636Z,13.88
2023-02-13T14:29:34.054Z,15.75
2023-02-13T14:32:08.398Z,15.10
2023-02-13T14:34:38.884Z,16.05
2023-02-13T14:37:20.653Z,16.13
2023-02-13T14:40:28.864Z,15.57
2023-02-13T14:43:00.041Z,15.10
2023-02-13T14:45:33.213Z,14.60
2023-02-13T14:48:07.703Z,16.13
2023-02-13T14:50:45.718Z,15.50
2023-02-13T14:53:21.090Z,15.93
2023-02-13T14:55:52.328Z,16.60
2023-02-13T14:58:25.030Z,15.10
2023-02-13T15:00:58.715Z,16.38
2023-02-13T15:03:30.567Z,17.38
2023-02-13T15:06:02.314Z,15.32
2023-02-13T15:08:33.615Z,19.57
2023-02-13T15:11:02.507Z,18.13
2023-02-13T15:13:34.882Z,17.88
2023-02-13T15:16:06.595Z,18.80
2023-02-13T15:18:38.018Z,16.95
2023-02-13T15:21:06.827Z,19.05
2023-02-13T15:23:35.673Z,19.50
2023-02-13T15:26:05.511Z,19.13
2023-02-13T15:28:35.567Z,20.77
2023-02-13T15:31:06.644Z,22.13
2023-02-13T15:33:38.329Z,22.88
2023-02-13T15:36:07.670Z,25.13
2023-02-13T15:38:37.977Z,23.88
2023-02-13T15:41:09.000Z,23.23
2023-02-13T15:43:39.352Z,23.02
2023-02-13T15:46:20.685Z,25.40
2023-02-13T15:48:49.101Z,30.58
2023-02-13T15:51:20.574Z,35.08
2023-02-13T15:53:52.460Z,30.48
2023-02-13T15:58:48.961Z,19.00
2023-02-13T16:01:18.989Z,18.55
2023-02-13T16:03:48.942Z,16.65
2023-02-13T16:06:19.140Z,17.65
2023-02-13T16:08:52.969Z,18.95
2023-02-13T16:11:26.394Z,21.38
2023-02-13T16:14:12.040Z,22.20
2023-02-13T16:16:48.669Z,19.40
2023-02-13T16:19:28.552Z,22.52
2023-02-13T16:21:58.580Z,25.88
2023-02-13T16:24:27.165Z,27.05
2023-02-13T16:26:55.530Z,24.88
2023-02-13T16:29:26.169Z,24.30
2023-02-13T16:32:05.044Z,21.35
2023-02-13T16:34:33.459Z,24.23
2023-02-13T16:37:01.779Z,25.48
2023-02-13T16:39:31.451Z,26.25
2023-02-13T16:42:01.261Z,27.38
2023-02-13T16:44:30.585Z,28.95
2023-02-13T16:47:01.547Z,29.70
2023-02-13T16:49:31.188Z,29.40
2023-02-13T16:52:12.387Z,29.67
2023-02-13T16:54:53.768Z,27.00
2023-02-13T16:57:25.124Z,25.57
2023-02-13T16:59:57.074Z,24.63
2023-02-13T17:02:27.894Z,25.80
2023-02-13T17:04:57.688Z,24.17
2023-02-13T17:07:28.343Z,24.85
2023-02-13T17:10:01.293Z,22.20
2023-02-13T17:12:30.874Z,16.65
2023-02-13T17:14:59.911Z,19.67
2023-02-13T17:17:31.664Z,16.45
2023-02-13T17:19:59.874Z,14.25
2023-02-13T17:22:36.526Z,13.40
2023-02-13T17:25:07.372Z,14.50
2023-02-13T17:27:35.979Z,13.30
2023-02-13T17:30:04.582Z,12.27
2023-02-13T17:32:34.204Z,12.70
2023-02-13T17:35:02.143Z,12.30
2023-02-13T17:37:32.741Z,12.50
2023-02-13T17:40:00.735Z,10.68
2023-02-13T17:42:29.854Z,12.32
2023-02-13T17:44:59.358Z,15.00
2023-02-13T17:47:27.867Z,13.68
2023-02-13T17:50:08.332Z,15.05
2023-02-13T17:52:37.798Z,16.83
2023-02-13T17:55:06.563Z,17.65
2023-02-13T17:57:34.824Z,16.85
2023-02-13T18:00:05.005Z,18.67
2023-02-13T18:02:34.326Z,17.30
2023-02-13T18:05:03.679Z,17.42
2023-02-13T18:07:31.838Z,20.60
2023-02-13T18:09:59.741Z,18.33
2023-02-13T18:12:27.967Z,19.00
2023-02-13T18:14:56.050Z,18.13
2023-02-13T18:17:24.219Z,17.23
2023-02-13T18:19:52.475Z,17.77
2023-02-13T18:22:22.252Z,18.08
2023-02-13T18:24:50.546Z,14.23
2023-02-13T18:27:19.097Z,17.63
2023-02-13T18:29:47.136Z,21.48
2023-02-13T18:32:15.439Z,17.42
2023-02-13T18:34:43.408Z,15.57
2023-02-13T18:37:12.612Z,17.88
2023-02-13T18:39:41.863Z,18.60
2023-02-13T18:42:11.442Z,21.88
2023-02-13T18:44:39.658Z,21.27
2023-02-13T18:47:08.338Z,21.85
2023-02-13T18:49:36.368Z,18.65
2023-02-13T18:52:04.878Z,18.65
2023-02-13T18:54:32.958Z,17.80
2023-02-13T18:57:02.677Z,18.02
2023-02-13T18:59:30.621Z,15.35
2023-02-13T19:02:00.627Z,15.95
2023-02-13T19:04:29.264Z,16.00
2023-02-13T19:06:57.723Z,15.02
2023-02-13T19:09:25.608Z,16.25
2023-02-13T19:11:53.790Z,16.63
2023-02-13T19:14:25.156Z,16.17
2023-02-13T19:19:21.920Z,16.73
2023-02-13T19:21:50.358Z,17.02
2023-02-13T19:24:18.638Z,17.48
2023-02-13T19:26:47.175Z,16.48
2023-02-13T19:29:15.134Z,17.15
2023-02-13T19:31:44.737Z,17.33
2023-02-13T19:34:12.790Z,18.23
2023-02-13T19:36:40.957Z,19.35
2023-02-13T19:39:09.449Z,19.25
2023-02-13T19:41:39.720Z,19.17
2023-02-13T19:44:08.625Z,18.83
2023-02-13T19:46:37.882Z,19.05
2023-02-13T19:49:07.497Z,19.88
2023-02-13T19:51:36.087Z,21.33
2023-02-13T19:54:06.315Z,19.15
2023-02-13T19:56:36.648Z,20.20
2023-02-13T19:59:05.170Z,20.23
2023-02-13T20:01:33.707Z,19.60
2023-02-13T20:04:01.775Z,20.88
2023-02-13T20:06:34.984Z,21.50
2023-02-13T20:09:05.463Z,21.00
2023-02-13T20:11:33.677Z,19.52
2023-02-13T20:14:01.743Z,21.23
2023-02-13T20:16:33.015Z,21.05
2023-02-13T20:19:03.695Z,22.92
2023-02-13T20:21:34.378Z,24.05
2023-02-13T20:24:03.861Z,26.07
2023-02-13T20:26:32.426Z,26.70
2023-02-13T20:29:00.515Z,25.95
2023-02-13T20:31:30.138Z,25.60
2023-02-13T20:33:59.073Z,27.75
2023-02-13T20:36:28.841Z,27.67
2023-02-13T20:39:00.230Z,29.05
2023-02-13T20:41:30.351Z,27.75
2023-02-13T20:43:59.429Z,31.42
2023-02-13T20:46:27.934Z,31.92
2023-02-13T20:48:55.832Z,32.78
2023-02-13T20:51:24.291Z,36.05
2023-02-13T20:53:52.243Z,31.23
2023-02-13T20:56:23.431Z,33.03
2023-02-13T20:58:53.136Z,32.35
2023-02-13T21:01:25.656Z,32.70
2023-02-13T21:06:24.582Z,29.55
2023-02-13T21:08:52.709Z,33.85
2023-02-13T21:11:23.123Z,28.13
2023-02-13T21:13:51.391Z,26.30
2023-02-13T21:16:21.051Z,24.70
2023-02-13T21:18:49.597Z,24.95
2023-02-13T21:21:18.610Z,25.55
2023-02-13T21:23:46.565Z,25.25
2023-02-13T21:26:16.380Z,29.30
2023-02-13T21:28:46.901Z,27.88
2023-02-13T21:31:16.510Z,27.33
2023-02-13T21:33:44.620Z,26.20
2023-02-13T21:36:13.709Z,27.25
2023-02-13T21:38:42.647Z,26.90
2023-02-13T21:41:12.956Z,28.90
2023-02-13T21:43:42.166Z,25.65
2023-02-13T21:46:13.113Z,27.83
2023-02-13T21:48:41.735Z,30.67
2023-02-13T21:51:11.392Z,30.23
2023-02-13T21:53:39.822Z,32.70
2023-02-13T21:56:12.256Z,33.03
2023-02-13T21:58:41.416Z,33.47
2023-02-13T22:01:23.809Z,35.78
2023-02-13T22:03:53.734Z,35.53
2023-02-13T22:06:22.149Z,36.08
2023-02-13T22:08:50.642Z,35.60
2023-02-13T22:11:19.258Z,32.88
2023-02-13T22:13:47.189Z,32.60
2023-02-13T22:16:17.036Z,33.17
2023-02-13T22:18:48.062Z,28.73
2023-02-13T22:21:18.467Z,33.17
2023-02-13T22:23:47.274Z,33.58
2023-02-13T22:26:17.502Z,35.97
2023-02-13T22:28:45.808Z,35.60
2023-02-13T22:31:16.162Z,34.38
2023-02-13T22:33:47.775Z,34.47
2023-02-13T22:36:22.044Z,33.55
2023-02-13T22:38:51.092Z,32.50
2023-02-13T22:41:21.419Z,33.90
2023-02-13T22:43:49.587Z,34.78
2023-02-13T22:46:21.053Z,32.97
2023-02-13T22:48:51.942Z,35.42
2023-02-13T22:51:21.890Z,35.60
2023-02-13T22:53:50.307Z,39.00
2023-02-13T22:56:18.489Z,39.45
2023-02-13T22:58:46.392Z,37.22
2023-02-13T23:01:15.866Z,37.17
2023-02-13T23:03:45.424Z,41.05
2023-02-13T23:06:15.312Z,39.60
2023-02-13T23:08:43.656Z,38.75
2023-02-13T23:11:31.256Z,37.35
2023-02-13T23:13:59.620Z,38.88
2023-02-13T23:16:28.453Z,41.42
2023-02-13T23:18:57.794Z,40.17
2023-02-13T23:21:26.471Z,43.08
2023-02-13T23:23:54.380Z,40.72
2023-02-13T23:26:22.530Z,41.55
2023-02-13T23:28:50.400Z,40.17
2023-02-13T23:31:18.656Z,40.88
2023-02-13T23:33:46.614Z,44.40
2023-02-13T23:36:16.360Z,43.40
2023-02-13T23:38:44.755Z,42.67
2023-02-13T23:41:12.940Z,43.65
2023-02-13T23:43:40.951Z,43.63
2023-02-13T23:46:09.311Z,44.00
2023-02-13T23:48:37.216Z,41.97
2023-02-13T23:51:05.662Z,41.38
2023-02-13T23:53:37.937Z,42.45
2023-02-13T23:56:06.983Z,41.33
2023-02-13T23:58:35.008Z,41.28
